Aérodrome :
LOGIN :

S'inscrire | Disclaimer

   EN    FR    IT 

 










Légende :    VFR   VFR Marginal   IFR   IFR Intensif   IFR Très Intensif
Visi : 
Plafond : 
>= 8 km
>= 3000ft
5 à 8 km
1000 à 3000 ft
1500m à 5 km
500 à 1000 ft
800 à 1500m
200 à 500 ft
< 800m
< 200 ft
Symboles :   Orages  Brouillard  Fortes neiges  Fortes précipitations  Vent > 20 kt
SIGMETs :   Divers  Orages  Givrage  Turbulence  Onde Orograph.  Cendres Volcan.







- Altitude de l'aérodrome : 1768 ft


LEHC - Huesca Pirineos

DERNIER METAR :
  • 211000Z 11007KT CAVOK 26/15 Q1022

METARs EXPIRÉS :
  • 210930Z 09005KT 030V170 CAVOK 25/16 Q1022
  • 210900Z 07006KT 030V110 CAVOK 25/16 Q1022
  • 210830Z 10006KT 060V140 9999 FEW015 23/17 Q1022
  • 210800Z 09005KT 060V140 9999 FEW015 22/17 Q1022
  • 210730Z 09004KT 050V140 9999 FEW015 22/15 Q1022

TAF TAF LEHC
Valide du 21 à 09h jusqu'au 22 à 09h UTC


210800Z 2109/2209 13008KT 9999 FEW045 TX33/2115Z TN19/2205Z
Pas de NOTAMs connus pour ce terrain.



MET'MAP, la Météo Aéronautique d'un coup d'oeil ! - Copyright ORBIFLY Décembre 2007 - Disclaimer

ORBIFLY MET'MAP TEAM :

Programmation & Développement : Alexandra Zaïnal
Conception & Développement : Baudouin d'Aumeries
Co-Programmation & Développement : Marc-Olivier Méhu
Soutien technique & logistique : Manuel Goepfert

Contact : metmap@orbifly.com




SOURCES & CREDITS :

   NOAA